Time;durP1;ratioP1;P1;durP2;ratioP2;P2;SDS_P1;SDS_P2;PMS_P1;PMS_P2;Temp;Humidity;BMP_temperature;BMP_pressure;BME280_temperature;BME280_humidity;BME280_pressure;Samples;Min_cycle;Max_cycle;Signal;HPM_P1;HPM_P2
2022/07/13 00:00:01;;;;;;;;;;;25.70;91.70;;;;;;5072133;28;19908;-71
2022/07/13 00:02:27;;;;;;;;;;;25.70;91.80;;;;;;5072150;28;20232;-71
2022/07/13 00:04:54;;;;;;;;;;;25.70;91.80;;;;;;5072006;28;20228;-71
2022/07/13 00:07:20;;;;;;;;;;;25.70;91.80;;;;;;5071920;28;19916;-71
2022/07/13 00:09:45;;;;;;;;;;;25.70;91.80;;;;;;5071901;28;19923;-71
2022/07/13 00:12:11;;;;;;;;;;;25.60;91.70;;;;;;5070108;28;19904;-71
2022/07/13 00:14:37;;;;;;;;;;;25.60;91.80;;;;;;5071448;28;19905;-71
2022/07/13 00:17:03;;;;;;;;;;;25.50;91.80;;;;;;5071811;28;20351;-72
2022/07/13 00:19:28;;;;;;;;;;;25.50;92.00;;;;;;5071680;28;19954;-71
2022/07/13 00:21:55;;;;;;;;;;;25.50;92.10;;;;;;5069860;28;19905;-71
2022/07/13 00:24:21;;;;;;;;;;;25.50;92.50;;;;;;5071660;28;19969;-71
2022/07/13 00:26:47;;;;;;;;;;;25.50;92.10;;;;;;5071435;28;19919;-71
2022/07/13 00:29:12;;;;;;;;;;;25.50;92.10;;;;;;5071321;28;20002;-71
2022/07/13 00:31:38;;;;;;;;;;;25.50;92.20;;;;;;5071258;28;20291;-72
2022/07/13 00:34:04;;;;;;;;;;;25.40;92.70;;;;;;5071561;28;19904;-71
2022/07/13 00:36:30;;;;;;;;;;;25.40;92.50;;;;;;5071177;28;19905;-72
2022/07/13 00:38:56;;;;;;;;;;;25.40;92.70;;;;;;5071417;28;20314;-71
2022/07/13 00:41:21;;;;;;;;;;;25.40;92.80;;;;;;5071812;28;19908;-71
2022/07/13 00:43:47;;;;;;;;;;;25.30;92.80;;;;;;5070887;28;20261;-71
2022/07/13 00:46:14;;;;;;;;;;;25.30;92.90;;;;;;5071107;28;19988;-71
2022/07/13 00:48:40;;;;;;;;;;;25.30;92.90;;;;;;5070936;28;19915;-71
2022/07/13 00:51:06;;;;;;;;;;;25.30;92.90;;;;;;5071015;28;20259;-71
2022/07/13 00:53:35;;;;;;;;;;;25.20;93.10;;;;;;5070891;28;20378;-71
2022/07/13 00:56:01;;;;;;;;;;;25.20;93.20;;;;;;5070777;28;19904;-72
2022/07/13 00:58:27;;;;;;;;;;;25.20;93.30;;;;;;5070858;28;19980;-71
2022/07/13 01:00:53;;;;;;;;;;;25.10;93.30;;;;;;5070407;28;20357;-71
2022/07/13 01:03:19;;;;;;;;;;;25.10;93.40;;;;;;5070968;28;19912;-71
2022/07/13 01:05:45;;;;;;;;;;;25.00;93.50;;;;;;5069622;28;19929;-71
2022/07/13 01:08:11;;;;;;;;;;;25.00;93.70;;;;;;5070976;28;19990;-71
2022/07/13 01:10:38;;;;;;;;;;;25.00;93.80;;;;;;5070624;28;19911;-71
2022/07/13 01:13:04;;;;;;;;;;;25.00;93.90;;;;;;5070786;28;19908;-71
2022/07/13 01:15:31;;;;;;;;;;;24.90;94.00;;;;;;5070357;28;20003;-71
2022/07/13 01:17:58;;;;;;;;;;;24.90;94.10;;;;;;5070969;28;19940;-71
2022/07/13 01:20:24;;;;;;;;;;;24.90;94.00;;;;;;5070638;28;19967;-71
2022/07/13 01:22:51;;;;;;;;;;;24.80;94.00;;;;;;5070668;28;19975;-71
2022/07/13 01:25:18;;;;;;;;;;;24.80;94.00;;;;;;5069037;28;19927;-72
2022/07/13 01:27:45;;;;;;;;;;;24.80;93.90;;;;;;5070540;28;19966;-71
2022/07/13 01:30:11;;;;;;;;;;;24.80;93.90;;;;;;5069038;28;20016;-71
2022/07/13 01:32:47;;;;;;;;;;;24.80;93.70;;;;;;5102928;28;19943;-71
2022/07/13 01:35:14;;;;;;;;;;;24.80;93.70;;;;;;5070357;28;19908;-71
2022/07/13 01:37:39;;;;;;;;;;;24.80;93.70;;;;;;5070531;28;19905;-71
2022/07/13 01:40:06;;;;;;;;;;;24.70;93.60;;;;;;5070387;28;19942;-71
2022/07/13 01:42:32;;;;;;;;;;;24.70;93.60;;;;;;5070548;28;19904;-71
2022/07/13 01:44:58;;;;;;;;;;;24.70;93.70;;;;;;5070439;28;19911;-71
2022/07/13 01:47:24;;;;;;;;;;;24.60;93.60;;;;;;5070621;28;19927;-71
2022/07/13 01:49:50;;;;;;;;;;;24.60;93.70;;;;;;5070368;28;19904;-71
2022/07/13 01:52:17;;;;;;;;;;;24.60;93.90;;;;;;5070435;28;20000;-71
2022/07/13 01:54:42;;;;;;;;;;;24.60;93.80;;;;;;5070491;28;19940;-72
2022/07/13 01:57:08;;;;;;;;;;;24.60;94.10;;;;;;5070277;28;20062;-71
2022/07/13 01:59:34;;;;;;;;;;;24.50;94.00;;;;;;5070304;28;19912;-71
2022/07/13 02:02:00;;;;;;;;;;;24.60;94.30;;;;;;5070380;28;20315;-70
2022/07/13 02:04:25;;;;;;;;;;;24.60;94.30;;;;;;5070106;28;19941;-71
2022/07/13 02:06:51;;;;;;;;;;;24.50;94.40;;;;;;5070499;28;19909;-71
2022/07/13 02:09:17;;;;;;;;;;;24.50;94.30;;;;;;5070033;28;20272;-71
2022/07/13 02:11:43;;;;;;;;;;;24.40;94.00;;;;;;5071585;28;19904;-71
2022/07/13 02:14:09;;;;;;;;;;;24.50;93.60;;;;;;5073739;28;19904;-71
2022/07/13 02:16:35;;;;;;;;;;;24.40;93.50;;;;;;5074093;28;19920;-71
2022/07/13 02:19:01;;;;;;;;;;;24.40;93.40;;;;;;5073681;28;19991;-71
2022/07/13 02:21:26;;;;;;;;;;;24.50;93.70;;;;;;5073571;28;19944;-71
2022/07/13 02:23:52;;;;;;;;;;;24.40;93.50;;;;;;5073725;28;19905;-70
2022/07/13 02:26:18;;;;;;;;;;;24.40;93.50;;;;;;5105714;28;19920;-70
2022/07/13 02:28:44;;;;;;;;;;;24.30;93.70;;;;;;5105931;28;19943;-70
2022/07/13 02:31:10;;;;;;;;;;;24.30;93.80;;;;;;5073200;28;19905;-70
2022/07/13 02:33:36;;;;;;;;;;;24.30;94.10;;;;;;5072977;28;20347;-70
2022/07/13 02:36:02;;;;;;;;;;;24.30;94.30;;;;;;5072812;28;20369;-71
2022/07/13 02:38:28;;;;;;;;;;;24.30;94.70;;;;;;5072809;28;19957;-71
2022/07/13 02:40:55;;;;;;;;;;;24.30;94.80;;;;;;5072720;28;19998;-71
2022/07/13 02:43:21;;;;;;;;;;;24.30;94.90;;;;;;5072616;28;19953;-71
2022/07/13 02:45:47;;;;;;;;;;;24.40;94.80;;;;;;5071490;28;19904;-71
2022/07/13 02:48:13;;;;;;;;;;;24.40;94.90;;;;;;5072548;28;20257;-71
2022/07/13 02:50:39;;;;;;;;;;;24.50;94.90;;;;;;5072887;28;19950;-71
2022/07/13 02:53:04;;;;;;;;;;;24.50;94.80;;;;;;5073333;28;19911;-71
2022/07/13 02:55:30;;;;;;;;;;;24.50;94.80;;;;;;5073462;28;20351;-71
2022/07/13 02:57:56;;;;;;;;;;;24.50;94.90;;;;;;5073253;28;19958;-71
2022/07/13 03:00:22;;;;;;;;;;;24.50;94.90;;;;;;5073025;28;20375;-71
2022/07/13 03:02:48;;;;;;;;;;;24.40;95.20;;;;;;5072991;28;19999;-71
2022/07/13 03:05:14;;;;;;;;;;;24.40;95.30;;;;;;5073023;28;20012;-71
2022/07/13 03:07:39;;;;;;;;;;;24.40;95.40;;;;;;5073336;28;19912;-71
2022/07/13 03:10:06;;;;;;;;;;;24.40;95.40;;;;;;5073071;28;19908;-71
2022/07/13 03:12:33;;;;;;;;;;;24.40;95.50;;;;;;5073222;28;19923;-71
2022/07/13 03:14:59;;;;;;;;;;;24.40;95.50;;;;;;5072405;28;19908;-70
2022/07/13 03:17:24;;;;;;;;;;;24.40;95.60;;;;;;5072725;28;19915;-71
2022/07/13 03:19:51;;;;;;;;;;;24.40;95.70;;;;;;5071468;28;20344;-70
2022/07/13 03:22:17;;;;;;;;;;;24.40;95.70;;;;;;5073556;28;19999;-71
2022/07/13 03:24:42;;;;;;;;;;;24.40;95.80;;;;;;5071948;28;19970;-70
2022/07/13 03:27:08;;;;;;;;;;;24.30;95.80;;;;;;5073210;28;20011;-70
2022/07/13 03:29:34;;;;;;;;;;;24.20;96.00;;;;;;5073286;28;19908;-70
2022/07/13 03:32:00;;;;;;;;;;;24.10;96.20;;;;;;5073434;28;19908;-70
2022/07/13 03:34:25;;;;;;;;;;;24.10;96.30;;;;;;5073221;28;19930;-71
2022/07/13 03:36:51;;;;;;;;;;;24.10;96.50;;;;;;5073616;28;19949;-71
2022/07/13 03:39:17;;;;;;;;;;;24.10;96.50;;;;;;5073162;28;20352;-70
2022/07/13 03:41:43;;;;;;;;;;;24.20;96.90;;;;;;5073301;28;19904;-71
2022/07/13 03:44:09;;;;;;;;;;;24.10;96.50;;;;;;5072916;28;19905;-70
2022/07/13 03:46:35;;;;;;;;;;;24.10;96.60;;;;;;5071312;28;19939;-71
2022/07/13 03:49:00;;;;;;;;;;;24.10;96.60;;;;;;5073120;28;19970;-71
2022/07/13 03:51:26;;;;;;;;;;;24.10;96.70;;;;;;5072637;28;20061;-71
2022/07/13 03:53:53;;;;;;;;;;;24.20;96.70;;;;;;5072848;28;19977;-70
2022/07/13 03:56:18;;;;;;;;;;;24.20;96.70;;;;;;5072648;28;19997;-71
2022/07/13 03:58:44;;;;;;;;;;;24.20;96.70;;;;;;5071069;28;19959;-70
2022/07/13 04:01:10;;;;;;;;;;;24.20;96.90;;;;;;5072612;28;19947;-71
2022/07/13 04:03:36;;;;;;;;;;;24.10;96.90;;;;;;5072622;28;19924;-71
2022/07/13 04:06:01;;;;;;;;;;;24.10;96.90;;;;;;5072389;28;20303;-71
2022/07/13 04:08:27;;;;;;;;;;;24.20;96.90;;;;;;5071015;28;20295;-71
2022/07/13 04:10:53;;;;;;;;;;;24.20;96.90;;;;;;5072411;28;19912;-71
2022/07/13 04:13:19;;;;;;;;;;;24.20;97.00;;;;;;5072644;28;19904;-71
2022/07/13 04:15:44;;;;;;;;;;;24.20;97.00;;;;;;5072091;28;19923;-70
2022/07/13 04:18:10;;;;;;;;;;;24.30;97.00;;;;;;5072663;28;19905;-70
2022/07/13 04:20:36;;;;;;;;;;;24.40;97.00;;;;;;5072867;28;20004;-71
2022/07/13 04:23:02;;;;;;;;;;;24.40;96.90;;;;;;5073267;28;20263;-70
2022/07/13 04:25:28;;;;;;;;;;;24.40;97.00;;;;;;5072715;28;19904;-70
2022/07/13 04:27:53;;;;;;;;;;;24.50;96.80;;;;;;5072875;28;20437;-70
2022/07/13 04:30:20;;;;;;;;;;;24.50;96.80;;;;;;5072260;28;19904;-71
2022/07/13 04:32:46;;;;;;;;;;;24.50;96.80;;;;;;5071052;28;19976;-70
2022/07/13 04:35:11;;;;;;;;;;;24.50;96.80;;;;;;5071829;28;19904;-70
2022/07/13 04:37:37;;;;;;;;;;;24.50;96.80;;;;;;5073136;28;19904;-70
2022/07/13 04:40:03;;;;;;;;;;;24.60;96.60;;;;;;5073149;28;19999;-70
2022/07/13 04:42:29;;;;;;;;;;;24.60;96.70;;;;;;5072707;28;19904;-70
2022/07/13 04:44:55;;;;;;;;;;;24.60;96.60;;;;;;5072736;28;19904;-71
2022/07/13 04:47:21;;;;;;;;;;;24.70;96.60;;;;;;5072725;28;20026;-71
2022/07/13 04:49:46;;;;;;;;;;;24.80;96.50;;;;;;5073186;28;19912;-71
2022/07/13 04:52:12;;;;;;;;;;;24.80;96.50;;;;;;5072467;28;20272;-72
2022/07/13 04:54:38;;;;;;;;;;;24.80;96.50;;;;;;5072851;28;19943;-71
2022/07/13 04:57:04;;;;;;;;;;;24.80;96.50;;;;;;5072554;28;20319;-71
2022/07/13 04:59:30;;;;;;;;;;;24.80;96.50;;;;;;5072726;28;19912;-71
2022/07/13 05:01:56;;;;;;;;;;;24.90;96.60;;;;;;5071474;28;19904;-71
2022/07/13 05:04:22;;;;;;;;;;;24.90;96.60;;;;;;5073117;28;19912;-71
2022/07/13 05:06:48;;;;;;;;;;;25.10;96.40;;;;;;5072565;28;20348;-71
2022/07/13 05:09:14;;;;;;;;;;;25.80;95.90;;;;;;5072200;28;19909;-71
2022/07/13 05:11:40;;;;;;;;;;;27.40;94.00;;;;;;5072425;28;19916;-71
2022/07/13 05:14:05;;;;;;;;;;;29.40;91.60;;;;;;5070964;28;19999;-71
2022/07/13 05:16:31;;;;;;;;;;;31.60;88.00;;;;;;5072219;28;19923;-71
2022/07/13 05:18:57;;;;;;;;;;;33.70;82.70;;;;;;5072614;28;19904;-71
2022/07/13 05:21:23;;;;;;;;;;;35.40;78.10;;;;;;5072116;28;20279;-72
2022/07/13 05:23:49;;;;;;;;;;;36.80;74.00;;;;;;5072132;28;19905;-71
2022/07/13 05:26:14;;;;;;;;;;;37.70;71.30;;;;;;5072351;28;19915;-71
2022/07/13 05:28:41;;;;;;;;;;;38.80;69.20;;;;;;5072175;28;19916;-71
2022/07/13 05:31:08;;;;;;;;;;;39.60;66.30;;;;;;5072439;28;19912;-71
2022/07/13 05:33:34;;;;;;;;;;;40.00;65.00;;;;;;5072124;28;19931;-72
2022/07/13 05:36:02;;;;;;;;;;;40.70;63.70;;;;;;5072530;28;19955;-72
2022/07/13 05:38:28;;;;;;;;;;;41.10;62.50;;;;;;5072410;28;19970;-72
2022/07/13 05:40:54;;;;;;;;;;;41.90;61.30;;;;;;5071800;28;19908;-72
2022/07/13 05:43:20;;;;;;;;;;;42.50;59.50;;;;;;5072400;28;20042;-71
2022/07/13 05:45:46;;;;;;;;;;;41.80;59.40;;;;;;5071793;28;19946;-72
2022/07/13 05:48:12;;;;;;;;;;;40.70;61.10;;;;;;5075791;28;19912;-71
2022/07/13 05:50:37;;;;;;;;;;;39.70;62.20;;;;;;5074387;28;19974;-71
2022/07/13 05:53:03;;;;;;;;;;;39.10;63.40;;;;;;5075681;28;20348;-71
2022/07/13 05:55:29;;;;;;;;;;;39.20;63.00;;;;;;5075494;28;20277;-71
2022/07/13 05:57:55;;;;;;;;;;;39.20;63.10;;;;;;5075931;28;20003;-72
2022/07/13 06:00:21;;;;;;;;;;;40.00;62.10;;;;;;5075342;28;20383;-72
2022/07/13 06:02:47;;;;;;;;;;;40.50;60.60;;;;;;5075313;28;20325;-72
2022/07/13 06:05:13;;;;;;;;;;;41.20;59.70;;;;;;5075323;28;20017;-72
2022/07/13 06:07:39;;;;;;;;;;;41.60;58.90;;;;;;5075047;28;19955;-72
2022/07/13 06:10:05;;;;;;;;;;;42.70;57.70;;;;;;5075754;28;20005;-73
2022/07/13 06:12:31;;;;;;;;;;;42.60;56.50;;;;;;5075194;28;20352;-73
2022/07/13 06:14:57;;;;;;;;;;;43.50;55.80;;;;;;5075040;28;19922;-73
2022/07/13 06:17:22;;;;;;;;;;;43.40;55.40;;;;;;5075602;28;19973;-72
2022/07/13 06:19:49;;;;;;;;;;;44.50;54.70;;;;;;5076133;28;20353;-73
2022/07/13 06:22:15;;;;;;;;;;;45.70;53.40;;;;;;5075600;28;19948;-73
2022/07/13 06:24:42;;;;;;;;;;;46.40;52.10;;;;;;5075501;28;20328;-72
2022/07/13 06:27:08;;;;;;;;;;;46.70;51.10;;;;;;5075239;28;19914;-73
2022/07/13 06:29:34;;;;;;;;;;;47.10;50.40;;;;;;5075518;28;19936;-73
2022/07/13 06:31:59;;;;;;;;;;;47.80;49.70;;;;;;5075224;28;19911;-73
2022/07/13 06:34:25;;;;;;;;;;;48.40;49.40;;;;;;5075093;28;19905;-73
2022/07/13 06:36:51;;;;;;;;;;;47.90;48.60;;;;;;5075219;28;19904;-73
2022/07/13 06:39:17;;;;;;;;;;;47.90;48.40;;;;;;5075271;28;19950;-73
2022/07/13 06:41:43;;;;;;;;;;;48.70;48.10;;;;;;5075542;28;19904;-73
2022/07/13 06:44:09;;;;;;;;;;;48.40;47.70;;;;;;5107716;28;20284;-73
2022/07/13 06:46:35;;;;;;;;;;;48.80;47.90;;;;;;5074821;28;19931;-73
2022/07/13 06:49:01;;;;;;;;;;;49.20;47.00;;;;;;5074950;28;20039;-73
2022/07/13 06:51:27;;;;;;;;;;;48.90;47.10;;;;;;5074868;28;20217;-73
2022/07/13 06:53:53;;;;;;;;;;;48.70;46.70;;;;;;5074711;28;20351;-73
2022/07/13 06:56:18;;;;;;;;;;;48.00;47.40;;;;;;5075276;28;19991;-73
2022/07/13 06:58:44;;;;;;;;;;;47.50;47.50;;;;;;5074023;28;19966;-73
2022/07/13 07:01:10;;;;;;;;;;;47.70;47.90;;;;;;5075207;28;19994;-73
2022/07/13 07:03:36;;;;;;;;;;;48.00;47.20;;;;;;5074845;28;19910;-73
2022/07/13 07:06:01;;;;;;;;;;;47.90;46.40;;;;;;5075052;28;19904;-73
2022/07/13 07:08:27;;;;;;;;;;;47.80;47.00;;;;;;5074741;28;20348;-73
2022/07/13 07:10:53;;;;;;;;;;;47.60;47.30;;;;;;5075121;28;19904;-73
2022/07/13 07:13:19;;;;;;;;;;;47.40;47.10;;;;;;5074860;28;20329;-73
2022/07/13 07:15:45;;;;;;;;;;;47.20;47.30;;;;;;5072993;28;20011;-73
2022/07/13 07:18:12;;;;;;;;;;;47.40;47.80;;;;;;5074586;28;19980;-73
2022/07/13 07:20:38;;;;;;;;;;;47.20;46.90;;;;;;5074888;28;19904;-73
2022/07/13 07:23:04;;;;;;;;;;;46.40;47.40;;;;;;5074448;28;19988;-72
2022/07/13 07:25:29;;;;;;;;;;;45.70;48.10;;;;;;5074952;28;19911;-72
2022/07/13 07:27:55;;;;;;;;;;;44.50;49.60;;;;;;5074573;28;20010;-72
2022/07/13 07:30:21;;;;;;;;;;;43.70;50.10;;;;;;5074344;28;19931;-72
2022/07/13 07:32:47;;;;;;;;;;;43.00;51.40;;;;;;5074253;28;20402;-72
2022/07/13 07:35:13;;;;;;;;;;;42.10;51.60;;;;;;5074598;28;19949;-72
2022/07/13 07:37:39;;;;;;;;;;;41.40;52.70;;;;;;5074367;28;20371;-72
2022/07/13 07:40:06;;;;;;;;;;;40.50;53.20;;;;;;5074363;28;19908;-72
2022/07/13 07:42:32;;;;;;;;;;;39.90;54.50;;;;;;5074060;28;19904;-72
2022/07/13 07:44:58;;;;;;;;;;;39.00;55.20;;;;;;5074376;28;19965;-72
2022/07/13 07:47:25;;;;;;;;;;;38.50;55.50;;;;;;5073755;28;20198;-72
2022/07/13 07:49:52;;;;;;;;;;;38.00;57.20;;;;;;5073828;28;20242;-71
2022/07/13 07:52:18;;;;;;;;;;;37.80;57.60;;;;;;5071557;28;19990;-72
2022/07/13 07:54:45;;;;;;;;;;;37.50;58.10;;;;;;5071119;28;20313;-72
2022/07/13 07:57:11;;;;;;;;;;;37.60;58.30;;;;;;5072890;28;19949;-72
2022/07/13 07:59:37;;;;;;;;;;;37.80;58.70;;;;;;5104991;28;19912;-71
2022/07/13 08:02:03;;;;;;;;;;;37.90;58.40;;;;;;5072665;28;19927;-71
2022/07/13 08:04:29;;;;;;;;;;;37.50;58.60;;;;;;5072299;28;20306;-71
2022/07/13 08:06:55;;;;;;;;;;;37.40;59.20;;;;;;5072532;28;19985;-71
2022/07/13 08:09:21;;;;;;;;;;;37.40;59.40;;;;;;5072159;28;20357;-71
2022/07/13 08:11:46;;;;;;;;;;;37.40;59.30;;;;;;5072308;28;19912;-71
2022/07/13 08:14:12;;;;;;;;;;;36.80;60.30;;;;;;5072319;28;19904;-71
2022/07/13 08:16:38;;;;;;;;;;;36.80;60.10;;;;;;5072514;28;19943;-71
2022/07/13 08:19:04;;;;;;;;;;;36.80;60.30;;;;;;5073078;28;20142;-71
2022/07/13 08:21:30;;;;;;;;;;;36.60;60.50;;;;;;5073536;28;20254;-71
2022/07/13 08:23:56;;;;;;;;;;;36.40;60.20;;;;;;5072986;28;19904;-72
2022/07/13 08:26:23;;;;;;;;;;;36.20;60.30;;;;;;5073181;28;20297;-71
2022/07/13 08:28:50;;;;;;;;;;;36.00;61.60;;;;;;5072596;28;19908;-72
2022/07/13 08:31:16;;;;;;;;;;;35.90;62.90;;;;;;5073159;28;19905;-71
2022/07/13 08:39:11;;;;;;;;;;;36.50;63.20;;;;;;5073100;28;19911;-71
2022/07/13 08:41:37;;;;;;;;;;;36.50;63.70;;;;;;5073586;28;19904;-71
2022/07/13 08:44:03;;;;;;;;;;;36.40;63.80;;;;;;5072627;28;20004;-71
2022/07/13 08:46:29;;;;;;;;;;;36.10;63.40;;;;;;5073081;28;19915;-71
2022/07/13 08:48:55;;;;;;;;;;;36.30;63.80;;;;;;5072729;28;19919;-71
2022/07/13 08:51:22;;;;;;;;;;;36.40;64.20;;;;;;5104454;28;20352;-71
2022/07/13 08:53:48;;;;;;;;;;;36.30;63.40;;;;;;5072617;28;19912;-72
2022/07/13 08:56:15;;;;;;;;;;;36.50;63.60;;;;;;5072335;28;20450;-72
2022/07/13 08:58:40;;;;;;;;;;;36.60;63.40;;;;;;5072325;28;19908;-72
2022/07/13 09:01:10;;;;;;;;;;;36.60;62.40;;;;;;5070847;28;19974;-72
2022/07/13 09:03:35;;;;;;;;;;;36.10;63.60;;;;;;5072224;28;19963;-72
2022/07/13 09:06:02;;;;;;;;;;;36.00;64.10;;;;;;5072694;28;20401;-72
2022/07/13 09:08:28;;;;;;;;;;;35.70;64.70;;;;;;5072181;28;20353;-72
2022/07/13 09:10:58;;;;;;;;;;;35.70;65.40;;;;;;5072574;28;19995;-72
2022/07/13 09:13:39;;;;;;;;;;;35.80;65.50;;;;;;5072354;28;19927;-72
2022/07/13 09:16:12;;;;;;;;;;;35.70;64.50;;;;;;5072043;28;19982;-72
2022/07/13 09:18:38;;;;;;;;;;;35.70;63.40;;;;;;5104442;28;19958;-72
2022/07/13 09:21:04;;;;;;;;;;;35.70;63.10;;;;;;5072005;28;19904;-72
2022/07/13 09:23:30;;;;;;;;;;;35.40;63.30;;;;;;5070459;28;19987;-72
2022/07/13 09:25:56;;;;;;;;;;;35.40;63.90;;;;;;5071697;28;20356;-72
2022/07/13 09:28:22;;;;;;;;;;;35.70;60.80;;;;;;5071853;28;19922;-72
2022/07/13 09:30:48;;;;;;;;;;;35.70;58.00;;;;;;5071870;28;19904;-72
2022/07/13 09:33:30;;;;;;;;;;;35.80;58.90;;;;;;5070106;28;19912;-72
2022/07/13 09:35:56;;;;;;;;;;;35.80;59.80;;;;;;5072008;28;19923;-72
2022/07/13 09:38:32;;;;;;;;;;;35.90;61.30;;;;;;5071585;28;19931;-72
2022/07/13 09:41:14;;;;;;;;;;;35.60;60.10;;;;;;5071396;28;19999;-72
2022/07/13 09:46:51;;;;;;;;;;;35.70;59.20;;;;;;5071728;28;20380;-71
2022/07/13 09:49:18;;;;;;;;;;;35.70;60.40;;;;;;5071206;28;19909;-71
2022/07/13 09:51:44;;;;;;;;;;;35.70;59.20;;;;;;5069467;28;20259;-73
2022/07/13 09:54:11;;;;;;;;;;;35.60;59.80;;;;;;5103584;28;19962;-72
2022/07/13 09:56:38;;;;;;;;;;;35.70;59.70;;;;;;5072095;28;20044;-72
2022/07/13 09:59:05;;;;;;;;;;;35.20;60.20;;;;;;5103799;28;19905;-72
2022/07/13 10:01:32;;;;;;;;;;;35.40;59.10;;;;;;5071522;28;19904;-71
2022/07/13 10:03:58;;;;;;;;;;;35.50;59.60;;;;;;5071991;28;19912;-71
2022/07/13 10:06:24;;;;;;;;;;;35.30;60.50;;;;;;5071429;28;19904;-72
2022/07/13 10:08:53;;;;;;;;;;;35.30;60.80;;;;;;5072008;28;20245;-71
2022/07/13 10:11:19;;;;;;;;;;;35.40;62.00;;;;;;5071358;28;20003;-72
2022/07/13 10:13:45;;;;;;;;;;;35.30;59.90;;;;;;5069950;28;20108;-72
2022/07/13 10:16:11;;;;;;;;;;;35.10;60.80;;;;;;5071003;28;19916;-72
2022/07/13 10:18:39;;;;;;;;;;;35.20;60.40;;;;;;5072097;28;19904;-71
2022/07/13 10:21:11;;;;;;;;;;;34.70;62.40;;;;;;5071870;28;20236;-72
2022/07/13 10:23:38;;;;;;;;;;;34.40;62.10;;;;;;5071858;28;19904;-71
2022/07/13 10:26:04;;;;;;;;;;;34.30;60.80;;;;;;5071634;28;20325;-72
2022/07/13 10:28:29;;;;;;;;;;;34.40;59.90;;;;;;5071868;28;19926;-72
2022/07/13 10:30:55;;;;;;;;;;;34.50;59.30;;;;;;5071465;28;19954;-71
2022/07/13 10:33:27;;;;;;;;;;;34.60;60.30;;;;;;5074021;28;19913;-71
2022/07/13 10:35:55;;;;;;;;;;;34.60;60.00;;;;;;5074927;28;19912;-72
2022/07/13 10:38:26;;;;;;;;;;;34.50;61.30;;;;;;5073979;28;19908;-72
2022/07/13 10:41:12;;;;;;;;;;;34.40;60.10;;;;;;5107566;28;19905;-72
2022/07/13 10:43:38;;;;;;;;;;;34.30;60.20;;;;;;5092761;28;19905;-71
2022/07/13 10:46:04;;;;;;;;;;;34.40;58.20;;;;;;5075245;28;19949;-71
2022/07/13 10:48:34;;;;;;;;;;;34.50;57.30;;;;;;5074926;28;19934;-71
2022/07/13 10:51:00;;;;;;;;;;;34.40;55.90;;;;;;5074707;28;19905;-72
2022/07/13 10:53:38;;;;;;;;;;;34.30;55.80;;;;;;5073372;28;20007;-71
2022/07/13 10:56:14;;;;;;;;;;;34.30;55.70;;;;;;5074533;28;19947;-72
2022/07/13 10:58:40;;;;;;;;;;;34.40;54.90;;;;;;5074301;28;19904;-71
2022/07/13 11:01:24;;;;;;;;;;;34.60;55.30;;;;;;5074014;28;19904;-72
2022/07/13 11:03:51;;;;;;;;;;;34.60;54.80;;;;;;5074409;28;19909;-71
2022/07/13 11:06:23;;;;;;;;;;;34.60;55.10;;;;;;5074001;28;19920;-71
2022/07/13 11:09:04;;;;;;;;;;;34.60;54.90;;;;;;5074476;28;19908;-71
2022/07/13 11:11:30;;;;;;;;;;;34.60;54.30;;;;;;5074001;28;19975;-72
2022/07/13 11:13:56;;;;;;;;;;;34.50;54.50;;;;;;5073952;28;20054;-72
2022/07/13 11:16:40;;;;;;;;;;;34.70;54.20;;;;;;5073724;28;19917;-71
2022/07/13 11:19:06;;;;;;;;;;;34.70;54.10;;;;;;5074749;28;19969;-71
2022/07/13 11:21:52;;;;;;;;;;;34.70;54.40;;;;;;5075111;28;19904;-71
2022/07/13 11:27:26;;;;;;;;;;;34.80;53.50;;;;;;5052487;28;19913;-72
2022/07/13 11:29:55;;;;;;;;;;;34.70;53.10;;;;;;5065605;28;19918;-71
2022/07/13 11:32:21;;;;;;;;;;;34.60;52.40;;;;;;5074588;28;19908;-71
2022/07/13 11:34:47;;;;;;;;;;;34.60;51.90;;;;;;5074928;28;20329;-72
2022/07/13 11:37:13;;;;;;;;;;;34.60;52.10;;;;;;5074292;28;19910;-72
2022/07/13 11:39:39;;;;;;;;;;;34.50;51.30;;;;;;5074693;28;19999;-71
2022/07/13 11:42:07;;;;;;;;;;;34.50;51.30;;;;;;5074853;28;20352;-71
2022/07/13 11:44:33;;;;;;;;;;;34.60;50.90;;;;;;5073910;28;19970;-71
2022/07/13 11:47:01;;;;;;;;;;;34.60;50.40;;;;;;5073937;28;19951;-72
2022/07/13 11:49:27;;;;;;;;;;;34.40;50.60;;;;;;5073979;28;19908;-71
2022/07/13 11:51:53;;;;;;;;;;;34.30;51.10;;;;;;5073250;28;19930;-71
2022/07/13 11:54:21;;;;;;;;;;;34.50;50.40;;;;;;5074014;28;20349;-72
2022/07/13 11:56:48;;;;;;;;;;;34.50;49.90;;;;;;5106439;28;19912;-72
2022/07/13 11:59:14;;;;;;;;;;;34.50;49.70;;;;;;5074235;28;20051;-72
2022/07/13 12:01:50;;;;;;;;;;;34.30;50.20;;;;;;5073770;28;19927;-73
2022/07/13 12:04:23;;;;;;;;;;;34.30;50.10;;;;;;5073876;28;19909;-73
2022/07/13 12:06:49;;;;;;;;;;;34.40;49.50;;;;;;5073128;28;19965;-72
2022/07/13 12:09:18;;;;;;;;;;;34.40;49.20;;;;;;5072065;28;19905;-72
2022/07/13 12:11:44;;;;;;;;;;;34.20;49.90;;;;;;5073772;28;19994;-72
2022/07/13 12:14:11;;;;;;;;;;;34.00;49.80;;;;;;5073783;28;19904;-74
2022/07/13 12:16:37;;;;;;;;;;;34.20;51.50;;;;;;5073370;28;20003;-74
2022/07/13 12:19:06;;;;;;;;;;;34.40;50.90;;;;;;5074067;28;20069;-73
2022/07/13 12:21:32;;;;;;;;;;;34.40;49.00;;;;;;5073516;28;19904;-73
2022/07/13 12:23:58;;;;;;;;;;;34.50;49.30;;;;;;5073935;28;19904;-73
2022/07/13 12:26:25;;;;;;;;;;;34.50;49.10;;;;;;5073426;28;20001;-73
2022/07/13 12:28:50;;;;;;;;;;;34.20;49.20;;;;;;5073370;28;19914;-73
2022/07/13 12:31:22;;;;;;;;;;;34.10;49.00;;;;;;5073521;28;19904;-73
2022/07/13 12:33:50;;;;;;;;;;;34.00;49.10;;;;;;5073853;28;19911;-77
2022/07/13 12:36:19;;;;;;;;;;;33.90;50.40;;;;;;5073410;28;19958;-73
2022/07/13 12:39:01;;;;;;;;;;;33.90;50.70;;;;;;5073790;28;19908;-73
2022/07/13 12:41:28;;;;;;;;;;;34.00;49.60;;;;;;5073271;28;19948;-73
2022/07/13 12:43:56;;;;;;;;;;;33.90;49.50;;;;;;5073585;28;19905;-73
2022/07/13 12:46:22;;;;;;;;;;;33.90;49.60;;;;;;5073035;28;19908;-73
2022/07/13 12:48:57;;;;;;;;;;;34.10;49.30;;;;;;5073367;28;19930;-73
2022/07/13 12:51:23;;;;;;;;;;;33.80;50.70;;;;;;5072922;28;19904;-73
2022/07/13 12:53:50;;;;;;;;;;;33.80;51.00;;;;;;5072748;28;19987;-73
2022/07/13 12:56:17;;;;;;;;;;;34.10;51.00;;;;;;5072083;28;19909;-73
2022/07/13 12:58:50;;;;;;;;;;;34.20;49.90;;;;;;5073107;28;19948;-74
2022/07/13 13:01:29;;;;;;;;;;;34.00;50.20;;;;;;5072967;28;19908;-73
2022/07/13 13:03:55;;;;;;;;;;;33.90;49.70;;;;;;5072890;28;19950;-73
2022/07/13 13:06:21;;;;;;;;;;;33.90;50.10;;;;;;5072857;28;19944;-73
2022/07/13 13:08:47;;;;;;;;;;;33.80;50.10;;;;;;5072749;28;19943;-73
2022/07/13 13:11:13;;;;;;;;;;;33.90;50.90;;;;;;5072848;28;20033;-73
2022/07/13 13:13:38;;;;;;;;;;;33.80;51.70;;;;;;5072673;28;19957;-73
2022/07/13 13:16:04;;;;;;;;;;;33.70;51.70;;;;;;5072557;28;20022;-73
2022/07/13 13:18:30;;;;;;;;;;;33.60;50.90;;;;;;5072866;28;20276;-73
2022/07/13 13:20:56;;;;;;;;;;;33.80;51.70;;;;;;5073214;28;20343;-73
2022/07/13 13:23:22;;;;;;;;;;;33.80;51.20;;;;;;5073268;28;19908;-74
2022/07/13 13:25:47;;;;;;;;;;;33.70;51.10;;;;;;5073504;28;19951;-73
2022/07/13 13:28:13;;;;;;;;;;;33.80;51.30;;;;;;5072557;28;19912;-73
2022/07/13 13:30:45;;;;;;;;;;;33.90;51.90;;;;;;5073086;28;19911;-73
2022/07/13 13:33:15;;;;;;;;;;;34.10;51.80;;;;;;5072834;28;19904;-73
2022/07/13 13:35:42;;;;;;;;;;;34.20;51.20;;;;;;5072641;28;19963;-73
2022/07/13 13:38:09;;;;;;;;;;;33.90;51.20;;;;;;5072643;28;19927;-72
2022/07/13 13:40:38;;;;;;;;;;;33.80;51.30;;;;;;5072724;28;20332;-72
2022/07/13 13:43:04;;;;;;;;;;;33.80;50.90;;;;;;5072563;28;20003;-73
2022/07/13 13:45:31;;;;;;;;;;;33.80;50.60;;;;;;5072973;28;19940;-74
2022/07/13 13:47:57;;;;;;;;;;;33.80;50.20;;;;;;5072512;28;20348;-74
2022/07/13 13:50:23;;;;;;;;;;;33.70;49.60;;;;;;5072895;28;19949;-73
2022/07/13 13:52:49;;;;;;;;;;;33.80;49.60;;;;;;5071742;28;19987;-73
2022/07/13 13:55:15;;;;;;;;;;;33.80;49.90;;;;;;5072232;28;20026;-73
2022/07/13 13:57:43;;;;;;;;;;;34.00;49.80;;;;;;5072176;28;19933;-73
2022/07/13 14:00:10;;;;;;;;;;;33.90;49.70;;;;;;5072067;28;19904;-73
2022/07/13 14:02:36;;;;;;;;;;;33.80;49.60;;;;;;5071964;28;20341;-72
2022/07/13 14:05:02;;;;;;;;;;;33.80;49.60;;;;;;5072127;28;19904;-72
2022/07/13 14:07:28;;;;;;;;;;;33.80;50.10;;;;;;5074089;28;19918;-72
2022/07/13 14:09:53;;;;;;;;;;;33.90;49.70;;;;;;5075366;28;19904;-72
2022/07/13 14:12:21;;;;;;;;;;;34.00;50.10;;;;;;5076278;28;19919;-72
2022/07/13 14:14:47;;;;;;;;;;;33.70;50.40;;;;;;5075698;28;20348;-72
2022/07/13 14:17:13;;;;;;;;;;;33.60;50.80;;;;;;5076239;28;19905;-72
2022/07/13 14:19:45;;;;;;;;;;;33.60;50.30;;;;;;5075566;28;19950;-72
2022/07/13 14:22:14;;;;;;;;;;;33.50;50.40;;;;;;5075932;28;19904;-72
2022/07/13 14:24:41;;;;;;;;;;;33.60;50.60;;;;;;5075583;28;19966;-72